Viroqua, WI (54665)

4:02 AM CST on December 08, 2016 (GMT -0600)
Serendipity Golf Course | | Change Station

Elev 817 ft 43.58 °N, 90.77 °W | Updated 1 second ago

Overcast
Overcast
15.7 °F
Feels Like 9 °F
N
4.0
Wind Variable Wind from WNW
Gusts 7.0 mph

Today
High -- | Low -- °F
--% Chance of Precip.
Yesterday
High -- | Low -- °F
Precip. -- in
Pressure 30.13 in
Visibility 4.0 miles
Clouds Overcast 2000 ft
Windchill 9 °F
Dew Point 10 °F
Humidity 79%
Rainfall 0.00 in
Snow Depth Not available.
7:24 AM 4:26 PM
First Quarter, 62% visible
METAR KY51 080955Z AUTO 26012G15KT 4SM OVC020 M10/M13 A3013 RMK AO1 T11051130
Pressure 30.13 in
Visibility 4.0 miles
Clouds Overcast 2000 ft
Windchill 9 °F
Dew Point 10 °F
Humidity 79%
Rainfall 0.00 in
Snow Depth Not available.
7:24 AM 4:26 PM
First Quarter, 62% visible
METAR KY51 080955Z AUTO 26012G15KT 4SM OVC020 M10/M13 A3013 RMK AO1 T11051130

10-Day Weather Forecast

Almanac

Astronomy

Dec. 08, 2016 Rise Set
Actual Time
Civil Twilight
Nautical Twilight
Astronomical Twilight
Moon
Length of Visible Light
Length of Day
Tomorrow will be .
, % of the Moon is Illuminated

Today's Extremes

State Highs State Lows

Community

WunderPhotos

Upload Photos

1,956,261 photos uploaded!

WunderBlog® & News

Nearby

Air Quality

  Air Quality AQ Index Pollutant
Not available.

Snow Depth

Station Depth Elevation

Earthquake Activity

City Distance Mag. Time & Date
Minimum magnitude displayed is 2.5.

Coastal Water Temperatures

Place Temperature

Stations

Nearby Weather Stations

Station Location Temp. Windchill Dew Point Humidity Wind Precip. Elev Updated Type
                   

Watches & Warnings

There are currently no watches in effect.